TimeCDT,TemperatureF,Dew PointF,Humidity,Sea Level PressureIn,VisibilityMPH,Wind Direction,Wind SpeedMPH,Gust SpeedMPH,PrecipitationIn,Events,Conditions,WindDirDegrees,DateUTC
12:53 AM,64.0,50.0,60,29.49,10.0,South,9.2,-,N/A,,Clear,190,2012-10-17 05:53:00
1:53 AM,63.0,51.1,65,29.48,10.0,South,8.1,-,N/A,,Clear,190,2012-10-17 06:53:00
2:53 AM,62.1,52.0,70,29.48,10.0,SSW,9.2,-,N/A,,Clear,200,2012-10-17 07:53:00
3:53 AM,60.1,53.1,78,29.46,10.0,South,6.9,-,N/A,,Clear,180,2012-10-17 08:53:00
4:53 AM,59.0,53.1,81,29.44,10.0,South,9.2,-,N/A,,Clear,180,2012-10-17 09:53:00
5:53 AM,59.0,53.1,81,29.43,10.0,South,8.1,-,N/A,,Clear,170,2012-10-17 10:53:00
6:53 AM,57.9,53.1,84,29.43,10.0,South,9.2,-,N/A,,Clear,180,2012-10-17 11:53:00
7:12 AM,59.0,53.6,82,29.49,10.0,WSW,6.9,-,N/A,,Mostly Cloudy,240,2012-10-17 12:12:00
7:53 AM,60.1,55.0,83,29.47,10.0,SSW,6.9,-,N/A,,Overcast,210,2012-10-17 12:53:00
8:53 AM,61.0,55.9,83,29.47,9.0,SW,6.9,-,N/A,,Overcast,220,2012-10-17 13:53:00
9:18 AM,62.6,57.2,82,29.49,9.0,SW,6.9,-,N/A,,Scattered Clouds,220,2012-10-17 14:18:00
9:53 AM,62.1,57.0,84,29.48,10.0,West,8.1,-,N/A,,Overcast,270,2012-10-17 14:53:00
10:06 AM,62.6,57.2,82,29.51,10.0,West,10.4,-,N/A,,Overcast,270,2012-10-17 15:06:00
10:53 AM,62.1,55.9,80,29.48,10.0,West,6.9,-,N/A,,Overcast,270,2012-10-17 15:53:00
11:53 AM,62.1,55.9,80,29.48,10.0,West,3.5,-,0.00,Rain,Light Rain,260,2012-10-17 16:53:00
12:53 PM,60.1,55.0,83,29.52,8.0,NW,10.4,19.6,0.01,Rain,Light Rain,310,2012-10-17 17:53:00
12:59 PM,57.2,51.8,82,29.54,2.0,NW,16.1,23.0,0.01,Rain,Light Rain,310,2012-10-17 17:59:00
1:08 PM,55.4,51.8,88,29.53,4.0,NW,11.5,21.9,0.03,Rain,Rain,310,2012-10-17 18:08:00
1:10 PM,55.4,51.8,88,29.54,5.0,NW,10.4,21.9,0.04,Rain,Light Rain,310,2012-10-17 18:10:00
1:53 PM,55.0,51.1,86,29.49,10.0,NW,11.5,-,0.06,,Scattered Clouds,320,2012-10-17 18:53:00
2:53 PM,60.1,51.1,72,29.51,10.0,NW,13.8,20.7,N/A,,Scattered Clouds,310,2012-10-17 19:53:00
3:53 PM,64.0,42.1,45,29.50,10.0,NW,13.8,19.6,N/A,,Clear,320,2012-10-17 20:53:00
4:53 PM,63.0,33.1,33,29.54,10.0,NW,15.0,24.2,N/A,,Partly Cloudy,310,2012-10-17 21:53:00
5:53 PM,61.0,35.1,38,29.58,10.0,NW,12.7,24.2,N/A,,Mostly Cloudy,310,2012-10-17 22:53:00
6:53 PM,60.1,33.1,36,29.62,10.0,NW,18.4,25.3,N/A,,Clear,320,2012-10-17 23:53:00
7:53 PM,57.0,33.1,40,29.63,10.0,WNW,6.9,-,N/A,,Clear,300,2012-10-18 00:53:00
8:53 PM,57.0,28.0,33,29.64,10.0,WNW,9.2,20.7,N/A,,Clear,300,2012-10-18 01:53:00
9:53 PM,55.9,24.1,29,29.65,10.0,WNW,8.1,16.1,N/A,,Clear,300,2012-10-18 02:53:00
10:53 PM,52.0,27.0,38,29.66,10.0,West,5.8,-,N/A,,Clear,270,2012-10-18 03:53:00
11:53 PM,51.1,28.0,41,29.66,10.0,WSW,4.6,-,N/A,,Clear,250,2012-10-18 04:53:00